sensor_id;sensor_type;location;lat;lon;timestamp;P1;durP1;ratioP1;P2;durP2;ratioP2
13147;SDS011;6639;50.956;4.242;2022-12-18T00:02:04;31.90;;;20.43;;
13147;SDS011;6639;50.956;4.242;2022-12-18T00:04:31;35.23;;;20.87;;
13147;SDS011;6639;50.956;4.242;2022-12-18T00:06:58;32.93;;;21.77;;
13147;SDS011;6639;50.956;4.242;2022-12-18T00:09:24;34.10;;;20.43;;
13147;SDS011;6639;50.956;4.242;2022-12-18T00:11:51;31.53;;;21.10;;
13147;SDS011;6639;50.956;4.242;2022-12-18T00:14:18;41.27;;;21.13;;
13147;SDS011;6639;50.956;4.242;2022-12-18T00:16:46;33.07;;;19.60;;
13147;SDS011;6639;50.956;4.242;2022-12-18T00:19:14;32.10;;;20.37;;
13147;SDS011;6639;50.956;4.242;2022-12-18T00:21:41;34.77;;;21.20;;
13147;SDS011;6639;50.956;4.242;2022-12-18T00:24:09;34.77;;;21.70;;
13147;SDS011;6639;50.956;4.242;2022-12-18T00:26:37;30.53;;;20.50;;
13147;SDS011;6639;50.956;4.242;2022-12-18T00:29:05;31.23;;;19.37;;
13147;SDS011;6639;50.956;4.242;2022-12-18T00:31:34;30.80;;;20.60;;
13147;SDS011;6639;50.956;4.242;2022-12-18T00:34:04;35.67;;;20.80;;
13147;SDS011;6639;50.956;4.242;2022-12-18T00:36:31;30.93;;;19.23;;
13147;SDS011;6639;50.956;4.242;2022-12-18T00:39:01;27.93;;;19.20;;
13147;SDS011;6639;50.956;4.242;2022-12-18T00:41:29;32.07;;;20.63;;
13147;SDS011;6639;50.956;4.242;2022-12-18T00:44:14;35.60;;;21.23;;
13147;SDS011;6639;50.956;4.242;2022-12-18T00:46:42;31.27;;;19.53;;
13147;SDS011;6639;50.956;4.242;2022-12-18T00:49:12;32.80;;;20.60;;
13147;SDS011;6639;50.956;4.242;2022-12-18T00:51:39;31.70;;;19.27;;
13147;SDS011;6639;50.956;4.242;2022-12-18T00:54:06;30.77;;;19.80;;
13147;SDS011;6639;50.956;4.242;2022-12-18T00:56:34;34.33;;;20.53;;
13147;SDS011;6639;50.956;4.242;2022-12-18T00:59:02;30.87;;;20.73;;
13147;SDS011;6639;50.956;4.242;2022-12-18T01:01:30;32.27;;;19.63;;
13147;SDS011;6639;50.956;4.242;2022-12-18T01:03:57;35.63;;;20.77;;
13147;SDS011;6639;50.956;4.242;2022-12-18T01:06:26;32.23;;;19.43;;
13147;SDS011;6639;50.956;4.242;2022-12-18T01:08:53;30.57;;;18.20;;
13147;SDS011;6639;50.956;4.242;2022-12-18T01:11:20;30.87;;;20.37;;
13147;SDS011;6639;50.956;4.242;2022-12-18T01:13:47;29.97;;;18.73;;
13147;SDS011;6639;50.956;4.242;2022-12-18T01:16:15;32.00;;;19.20;;
13147;SDS011;6639;50.956;4.242;2022-12-18T01:18:43;32.90;;;19.40;;
13147;SDS011;6639;50.956;4.242;2022-12-18T01:21:11;33.90;;;21.07;;
13147;SDS011;6639;50.956;4.242;2022-12-18T01:23:44;34.53;;;18.70;;
13147;SDS011;6639;50.956;4.242;2022-12-18T01:26:12;30.57;;;19.50;;
13147;SDS011;6639;50.956;4.242;2022-12-18T01:28:40;29.17;;;18.33;;
13147;SDS011;6639;50.956;4.242;2022-12-18T01:31:09;33.20;;;19.87;;
13147;SDS011;6639;50.956;4.242;2022-12-18T01:33:38;26.13;;;17.73;;
13147;SDS011;6639;50.956;4.242;2022-12-18T01:36:05;31.63;;;18.73;;
13147;SDS011;6639;50.956;4.242;2022-12-18T01:38:32;29.47;;;18.30;;
13147;SDS011;6639;50.956;4.242;2022-12-18T01:41:00;33.00;;;19.47;;
13147;SDS011;6639;50.956;4.242;2022-12-18T01:43:43;31.50;;;19.30;;
13147;SDS011;6639;50.956;4.242;2022-12-18T01:46:12;33.47;;;20.20;;
13147;SDS011;6639;50.956;4.242;2022-12-18T01:48:39;29.27;;;18.17;;
13147;SDS011;6639;50.956;4.242;2022-12-18T01:51:07;27.97;;;17.90;;
13147;SDS011;6639;50.956;4.242;2022-12-18T01:53:36;31.90;;;18.67;;
13147;SDS011;6639;50.956;4.242;2022-12-18T01:56:07;27.60;;;17.27;;
13147;SDS011;6639;50.956;4.242;2022-12-18T01:58:36;30.03;;;19.70;;
13147;SDS011;6639;50.956;4.242;2022-12-18T02:01:10;29.70;;;16.87;;
13147;SDS011;6639;50.956;4.242;2022-12-18T02:03:37;30.80;;;19.20;;
13147;SDS011;6639;50.956;4.242;2022-12-18T02:06:08;30.27;;;18.80;;
13147;SDS011;6639;50.956;4.242;2022-12-18T02:08:40;30.30;;;18.43;;
13147;SDS011;6639;50.956;4.242;2022-12-18T02:11:15;28.40;;;18.87;;
13147;SDS011;6639;50.956;4.242;2022-12-18T02:13:46;31.70;;;18.13;;
13147;SDS011;6639;50.956;4.242;2022-12-18T02:16:22;28.83;;;17.30;;
13147;SDS011;6639;50.956;4.242;2022-12-18T02:18:54;27.83;;;18.67;;
13147;SDS011;6639;50.956;4.242;2022-12-18T02:21:27;26.90;;;17.20;;
13147;SDS011;6639;50.956;4.242;2022-12-18T02:24:03;30.07;;;19.33;;
13147;SDS011;6639;50.956;4.242;2022-12-18T02:26:44;27.63;;;18.70;;
13147;SDS011;6639;50.956;4.242;2022-12-18T02:29:15;27.67;;;18.27;;
13147;SDS011;6639;50.956;4.242;2022-12-18T02:31:47;25.83;;;17.63;;
13147;SDS011;6639;50.956;4.242;2022-12-18T02:34:18;31.07;;;18.80;;
13147;SDS011;6639;50.956;4.242;2022-12-18T02:36:48;28.83;;;18.03;;
13147;SDS011;6639;50.956;4.242;2022-12-18T02:39:17;30.87;;;17.93;;
13147;SDS011;6639;50.956;4.242;2022-12-18T02:41:46;28.80;;;17.73;;
13147;SDS011;6639;50.956;4.242;2022-12-18T02:44:14;33.63;;;18.50;;
13147;SDS011;6639;50.956;4.242;2022-12-18T02:46:42;30.70;;;19.33;;
13147;SDS011;6639;50.956;4.242;2022-12-18T02:49:19;28.20;;;18.77;;
13147;SDS011;6639;50.956;4.242;2022-12-18T02:51:57;30.37;;;17.90;;
13147;SDS011;6639;50.956;4.242;2022-12-18T02:54:44;30.37;;;18.20;;
13147;SDS011;6639;50.956;4.242;2022-12-18T02:57:21;23.73;;;16.50;;
13147;SDS011;6639;50.956;4.242;2022-12-18T02:59:56;28.10;;;18.57;;
13147;SDS011;6639;50.956;4.242;2022-12-18T03:02:29;27.37;;;17.40;;
13147;SDS011;6639;50.956;4.242;2022-12-18T03:05:05;32.87;;;17.80;;
13147;SDS011;6639;50.956;4.242;2022-12-18T03:07:38;28.97;;;18.47;;
13147;SDS011;6639;50.956;4.242;2022-12-18T03:10:11;25.57;;;17.57;;
13147;SDS011;6639;50.956;4.242;2022-12-18T03:12:44;26.33;;;16.97;;
13147;SDS011;6639;50.956;4.242;2022-12-18T03:15:18;26.73;;;17.27;;
13147;SDS011;6639;50.956;4.242;2022-12-18T03:17:50;26.57;;;17.40;;
13147;SDS011;6639;50.956;4.242;2022-12-18T03:20:23;28.83;;;18.33;;
13147;SDS011;6639;50.956;4.242;2022-12-18T03:22:56;26.60;;;17.77;;
13147;SDS011;6639;50.956;4.242;2022-12-18T03:25:28;27.43;;;18.30;;
13147;SDS011;6639;50.956;4.242;2022-12-18T03:27:59;27.90;;;18.07;;
13147;SDS011;6639;50.956;4.242;2022-12-18T03:30:29;29.47;;;18.00;;
13147;SDS011;6639;50.956;4.242;2022-12-18T03:33:00;25.13;;;17.17;;
13147;SDS011;6639;50.956;4.242;2022-12-18T03:35:34;26.57;;;17.63;;
13147;SDS011;6639;50.956;4.242;2022-12-18T03:38:03;27.40;;;17.57;;
13147;SDS011;6639;50.956;4.242;2022-12-18T03:40:31;27.13;;;15.83;;
13147;SDS011;6639;50.956;4.242;2022-12-18T03:43:08;28.60;;;18.50;;
13147;SDS011;6639;50.956;4.242;2022-12-18T03:45:41;28.37;;;18.07;;
13147;SDS011;6639;50.956;4.242;2022-12-18T03:48:16;24.90;;;16.00;;
13147;SDS011;6639;50.956;4.242;2022-12-18T03:50:48;30.63;;;17.17;;
13147;SDS011;6639;50.956;4.242;2022-12-18T03:53:23;23.30;;;16.00;;
13147;SDS011;6639;50.956;4.242;2022-12-18T03:55:55;21.00;;;15.07;;
13147;SDS011;6639;50.956;4.242;2022-12-18T03:58:25;21.30;;;15.43;;
13147;SDS011;6639;50.956;4.242;2022-12-18T04:00:56;24.57;;;15.33;;
13147;SDS011;6639;50.956;4.242;2022-12-18T04:03:26;27.10;;;15.87;;
13147;SDS011;6639;50.956;4.242;2022-12-18T04:05:55;27.90;;;16.90;;
13147;SDS011;6639;50.956;4.242;2022-12-18T04:08:25;23.33;;;15.43;;
13147;SDS011;6639;50.956;4.242;2022-12-18T04:10:52;23.60;;;15.50;;
13147;SDS011;6639;50.956;4.242;2022-12-18T04:13:22;27.03;;;16.87;;
13147;SDS011;6639;50.956;4.242;2022-12-18T04:15:51;26.10;;;16.90;;
13147;SDS011;6639;50.956;4.242;2022-12-18T04:18:18;21.37;;;15.20;;
13147;SDS011;6639;50.956;4.242;2022-12-18T04:20:45;21.83;;;14.80;;
13147;SDS011;6639;50.956;4.242;2022-12-18T04:23:12;25.87;;;16.40;;
13147;SDS011;6639;50.956;4.242;2022-12-18T04:25:39;23.40;;;15.47;;
13147;SDS011;6639;50.956;4.242;2022-12-18T04:28:06;22.97;;;16.63;;
13147;SDS011;6639;50.956;4.242;2022-12-18T04:30:33;25.53;;;16.27;;
13147;SDS011;6639;50.956;4.242;2022-12-18T04:33:01;25.67;;;16.67;;
13147;SDS011;6639;50.956;4.242;2022-12-18T04:35:28;22.10;;;14.57;;
13147;SDS011;6639;50.956;4.242;2022-12-18T04:37:55;28.07;;;15.23;;
13147;SDS011;6639;50.956;4.242;2022-12-18T04:40:22;23.73;;;15.30;;
13147;SDS011;6639;50.956;4.242;2022-12-18T04:42:48;23.37;;;15.90;;
13147;SDS011;6639;50.956;4.242;2022-12-18T04:45:15;23.63;;;15.47;;
13147;SDS011;6639;50.956;4.242;2022-12-18T04:47:42;24.27;;;15.27;;
13147;SDS011;6639;50.956;4.242;2022-12-18T04:50:10;23.80;;;15.57;;
13147;SDS011;6639;50.956;4.242;2022-12-18T04:52:37;23.27;;;14.77;;
13147;SDS011;6639;50.956;4.242;2022-12-18T04:55:05;23.50;;;15.70;;
13147;SDS011;6639;50.956;4.242;2022-12-18T04:57:32;22.60;;;14.63;;
13147;SDS011;6639;50.956;4.242;2022-12-18T04:59:59;22.10;;;15.20;;
13147;SDS011;6639;50.956;4.242;2022-12-18T05:02:25;19.53;;;14.53;;
13147;SDS011;6639;50.956;4.242;2022-12-18T05:04:52;23.80;;;16.17;;
13147;SDS011;6639;50.956;4.242;2022-12-18T05:07:20;22.90;;;14.87;;
13147;SDS011;6639;50.956;4.242;2022-12-18T05:09:47;21.37;;;16.50;;
13147;SDS011;6639;50.956;4.242;2022-12-18T05:12:14;22.07;;;14.73;;
13147;SDS011;6639;50.956;4.242;2022-12-18T05:14:41;21.50;;;14.87;;
13147;SDS011;6639;50.956;4.242;2022-12-18T05:17:08;20.83;;;14.47;;
13147;SDS011;6639;50.956;4.242;2022-12-18T05:19:35;23.10;;;14.63;;
13147;SDS011;6639;50.956;4.242;2022-12-18T05:22:03;19.57;;;12.90;;
13147;SDS011;6639;50.956;4.242;2022-12-18T05:24:31;22.60;;;13.90;;
13147;SDS011;6639;50.956;4.242;2022-12-18T05:26:58;18.30;;;13.50;;
13147;SDS011;6639;50.956;4.242;2022-12-18T05:29:25;22.87;;;13.23;;
13147;SDS011;6639;50.956;4.242;2022-12-18T05:31:52;21.50;;;13.10;;
13147;SDS011;6639;50.956;4.242;2022-12-18T05:34:19;19.27;;;12.83;;
13147;SDS011;6639;50.956;4.242;2022-12-18T05:36:46;19.60;;;13.13;;
13147;SDS011;6639;50.956;4.242;2022-12-18T05:39:13;20.57;;;14.47;;
13147;SDS011;6639;50.956;4.242;2022-12-18T05:41:41;21.73;;;13.63;;
13147;SDS011;6639;50.956;4.242;2022-12-18T05:44:08;17.93;;;12.97;;
13147;SDS011;6639;50.956;4.242;2022-12-18T05:46:35;19.47;;;11.93;;
13147;SDS011;6639;50.956;4.242;2022-12-18T05:49:02;17.40;;;12.67;;
13147;SDS011;6639;50.956;4.242;2022-12-18T05:51:29;19.87;;;11.93;;
13147;SDS011;6639;50.956;4.242;2022-12-18T05:53:56;18.47;;;12.40;;
13147;SDS011;6639;50.956;4.242;2022-12-18T05:56:23;19.23;;;12.60;;
13147;SDS011;6639;50.956;4.242;2022-12-18T05:58:52;20.13;;;13.20;;
13147;SDS011;6639;50.956;4.242;2022-12-18T06:01:21;18.13;;;12.57;;
13147;SDS011;6639;50.956;4.242;2022-12-18T06:03:49;16.90;;;11.97;;
13147;SDS011;6639;50.956;4.242;2022-12-18T06:06:17;16.17;;;12.83;;
13147;SDS011;6639;50.956;4.242;2022-12-18T06:08:45;17.50;;;12.77;;
13147;SDS011;6639;50.956;4.242;2022-12-18T06:11:12;16.03;;;11.90;;
13147;SDS011;6639;50.956;4.242;2022-12-18T06:13:41;15.50;;;11.03;;
13147;SDS011;6639;50.956;4.242;2022-12-18T06:16:10;20.33;;;13.90;;
13147;SDS011;6639;50.956;4.242;2022-12-18T06:18:37;19.17;;;12.50;;
13147;SDS011;6639;50.956;4.242;2022-12-18T06:21:04;20.93;;;12.30;;
13147;SDS011;6639;50.956;4.242;2022-12-18T06:23:31;16.63;;;11.67;;
13147;SDS011;6639;50.956;4.242;2022-12-18T06:25:58;17.57;;;11.57;;
13147;SDS011;6639;50.956;4.242;2022-12-18T06:28:29;20.80;;;12.57;;
13147;SDS011;6639;50.956;4.242;2022-12-18T06:30:56;18.33;;;12.90;;
13147;SDS011;6639;50.956;4.242;2022-12-18T06:33:25;16.37;;;11.37;;
13147;SDS011;6639;50.956;4.242;2022-12-18T06:35:52;19.07;;;12.60;;
13147;SDS011;6639;50.956;4.242;2022-12-18T06:38:19;19.07;;;13.27;;
13147;SDS011;6639;50.956;4.242;2022-12-18T06:40:46;19.30;;;12.70;;
13147;SDS011;6639;50.956;4.242;2022-12-18T06:43:13;17.33;;;12.17;;
13147;SDS011;6639;50.956;4.242;2022-12-18T06:45:40;16.30;;;11.43;;
13147;SDS011;6639;50.956;4.242;2022-12-18T06:48:07;17.47;;;12.07;;
13147;SDS011;6639;50.956;4.242;2022-12-18T06:50:35;21.07;;;12.93;;
13147;SDS011;6639;50.956;4.242;2022-12-18T06:53:02;19.63;;;13.30;;
13147;SDS011;6639;50.956;4.242;2022-12-18T06:55:29;23.63;;;14.23;;
13147;SDS011;6639;50.956;4.242;2022-12-18T06:57:56;20.97;;;14.10;;
13147;SDS011;6639;50.956;4.242;2022-12-18T07:00:23;19.63;;;13.53;;
13147;SDS011;6639;50.956;4.242;2022-12-18T07:02:49;22.17;;;14.30;;
13147;SDS011;6639;50.956;4.242;2022-12-18T07:05:16;19.30;;;13.03;;
13147;SDS011;6639;50.956;4.242;2022-12-18T07:07:45;21.57;;;12.77;;
13147;SDS011;6639;50.956;4.242;2022-12-18T07:10:11;18.37;;;13.17;;
13147;SDS011;6639;50.956;4.242;2022-12-18T07:12:38;21.53;;;12.83;;
13147;SDS011;6639;50.956;4.242;2022-12-18T07:15:06;22.50;;;13.07;;
13147;SDS011;6639;50.956;4.242;2022-12-18T07:17:34;19.47;;;12.00;;
13147;SDS011;6639;50.956;4.242;2022-12-18T07:20:01;18.33;;;11.93;;
13147;SDS011;6639;50.956;4.242;2022-12-18T07:22:28;16.03;;;11.53;;
13147;SDS011;6639;50.956;4.242;2022-12-18T07:24:56;18.50;;;12.37;;
13147;SDS011;6639;50.956;4.242;2022-12-18T07:27:23;20.30;;;11.37;;
13147;SDS011;6639;50.956;4.242;2022-12-18T07:29:50;16.83;;;10.97;;
13147;SDS011;6639;50.956;4.242;2022-12-18T07:32:17;18.83;;;13.07;;
13147;SDS011;6639;50.956;4.242;2022-12-18T07:34:44;18.97;;;12.93;;
13147;SDS011;6639;50.956;4.242;2022-12-18T07:37:11;19.00;;;12.70;;
13147;SDS011;6639;50.956;4.242;2022-12-18T07:39:38;17.87;;;11.80;;
13147;SDS011;6639;50.956;4.242;2022-12-18T07:42:06;16.03;;;12.13;;
13147;SDS011;6639;50.956;4.242;2022-12-18T07:44:50;17.37;;;12.07;;
13147;SDS011;6639;50.956;4.242;2022-12-18T07:47:17;20.93;;;13.00;;
13147;SDS011;6639;50.956;4.242;2022-12-18T07:49:44;15.80;;;11.10;;
13147;SDS011;6639;50.956;4.242;2022-12-18T07:52:11;14.67;;;10.67;;
13147;SDS011;6639;50.956;4.242;2022-12-18T07:54:38;15.87;;;10.87;;
13147;SDS011;6639;50.956;4.242;2022-12-18T07:57:07;16.03;;;10.40;;
13147;SDS011;6639;50.956;4.242;2022-12-18T07:59:34;15.60;;;11.60;;
13147;SDS011;6639;50.956;4.242;2022-12-18T08:02:01;15.53;;;10.57;;
13147;SDS011;6639;50.956;4.242;2022-12-18T08:04:28;20.07;;;11.40;;
13147;SDS011;6639;50.956;4.242;2022-12-18T08:06:55;14.07;;;10.33;;
13147;SDS011;6639;50.956;4.242;2022-12-18T08:09:22;14.77;;;10.13;;
13147;SDS011;6639;50.956;4.242;2022-12-18T08:11:49;19.67;;;12.07;;
13147;SDS011;6639;50.956;4.242;2022-12-18T08:14:17;12.97;;;10.40;;
13147;SDS011;6639;50.956;4.242;2022-12-18T08:16:44;17.37;;;9.73;;
13147;SDS011;6639;50.956;4.242;2022-12-18T08:19:11;16.37;;;9.50;;
13147;SDS011;6639;50.956;4.242;2022-12-18T08:21:38;15.77;;;10.30;;
13147;SDS011;6639;50.956;4.242;2022-12-18T08:24:05;14.13;;;10.17;;
13147;SDS011;6639;50.956;4.242;2022-12-18T08:26:32;21.07;;;10.97;;
13147;SDS011;6639;50.956;4.242;2022-12-18T08:28:59;15.77;;;10.77;;
13147;SDS011;6639;50.956;4.242;2022-12-18T08:31:28;14.97;;;10.90;;
13147;SDS011;6639;50.956;4.242;2022-12-18T08:33:56;15.90;;;10.07;;
13147;SDS011;6639;50.956;4.242;2022-12-18T08:36:23;12.20;;;8.60;;
13147;SDS011;6639;50.956;4.242;2022-12-18T08:38:50;13.60;;;9.67;;
13147;SDS011;6639;50.956;4.242;2022-12-18T08:41:18;13.20;;;9.37;;
13147;SDS011;6639;50.956;4.242;2022-12-18T08:43:45;12.37;;;9.83;;
13147;SDS011;6639;50.956;4.242;2022-12-18T08:46:33;16.20;;;9.30;;
13147;SDS011;6639;50.956;4.242;2022-12-18T08:49:02;16.40;;;10.00;;
13147;SDS011;6639;50.956;4.242;2022-12-18T08:51:30;19.00;;;11.77;;
13147;SDS011;6639;50.956;4.242;2022-12-18T08:53:56;17.70;;;11.80;;
13147;SDS011;6639;50.956;4.242;2022-12-18T08:56:23;16.77;;;12.23;;
13147;SDS011;6639;50.956;4.242;2022-12-18T08:58:51;13.03;;;10.20;;
13147;SDS011;6639;50.956;4.242;2022-12-18T09:01:19;14.77;;;10.50;;
13147;SDS011;6639;50.956;4.242;2022-12-18T09:03:48;13.93;;;11.03;;
13147;SDS011;6639;50.956;4.242;2022-12-18T09:06:15;15.57;;;10.50;;
13147;SDS011;6639;50.956;4.242;2022-12-18T09:08:43;14.07;;;10.33;;
13147;SDS011;6639;50.956;4.242;2022-12-18T09:11:14;12.50;;;9.23;;
13147;SDS011;6639;50.956;4.242;2022-12-18T09:13:45;12.97;;;10.00;;
13147;SDS011;6639;50.956;4.242;2022-12-18T09:16:12;12.93;;;9.80;;
13147;SDS011;6639;50.956;4.242;2022-12-18T09:18:39;18.53;;;9.87;;
13147;SDS011;6639;50.956;4.242;2022-12-18T09:21:11;13.93;;;9.10;;
13147;SDS011;6639;50.956;4.242;2022-12-18T09:23:39;13.00;;;9.73;;
13147;SDS011;6639;50.956;4.242;2022-12-18T09:26:07;14.73;;;10.27;;
13147;SDS011;6639;50.956;4.242;2022-12-18T09:28:33;14.77;;;10.43;;
13147;SDS011;6639;50.956;4.242;2022-12-18T09:31:03;16.37;;;11.73;;
13147;SDS011;6639;50.956;4.242;2022-12-18T09:33:31;15.37;;;10.67;;
13147;SDS011;6639;50.956;4.242;2022-12-18T09:36:00;15.17;;;11.20;;
13147;SDS011;6639;50.956;4.242;2022-12-18T09:38:29;13.63;;;10.73;;
13147;SDS011;6639;50.956;4.242;2022-12-18T09:40:56;13.00;;;10.37;;
13147;SDS011;6639;50.956;4.242;2022-12-18T09:43:27;14.97;;;11.30;;
13147;SDS011;6639;50.956;4.242;2022-12-18T09:45:57;17.37;;;11.60;;
13147;SDS011;6639;50.956;4.242;2022-12-18T09:48:30;15.37;;;11.17;;
13147;SDS011;6639;50.956;4.242;2022-12-18T09:51:01;15.50;;;12.23;;
13147;SDS011;6639;50.956;4.242;2022-12-18T09:53:33;15.67;;;10.87;;
13147;SDS011;6639;50.956;4.242;2022-12-18T09:56:03;14.97;;;11.63;;
13147;SDS011;6639;50.956;4.242;2022-12-18T09:58:33;17.10;;;11.63;;
13147;SDS011;6639;50.956;4.242;2022-12-18T10:01:08;15.87;;;11.67;;
13147;SDS011;6639;50.956;4.242;2022-12-18T10:03:36;15.37;;;11.30;;
13147;SDS011;6639;50.956;4.242;2022-12-18T10:06:05;15.40;;;11.83;;
13147;SDS011;6639;50.956;4.242;2022-12-18T10:08:42;18.60;;;13.20;;
13147;SDS011;6639;50.956;4.242;2022-12-18T10:11:21;17.50;;;13.03;;
13147;SDS011;6639;50.956;4.242;2022-12-18T10:14:00;19.57;;;15.00;;
13147;SDS011;6639;50.956;4.242;2022-12-18T10:16:34;19.17;;;14.20;;
13147;SDS011;6639;50.956;4.242;2022-12-18T10:19:11;16.80;;;12.97;;
13147;SDS011;6639;50.956;4.242;2022-12-18T10:21:48;18.10;;;13.07;;
13147;SDS011;6639;50.956;4.242;2022-12-18T10:24:25;16.67;;;12.90;;
13147;SDS011;6639;50.956;4.242;2022-12-18T10:26:59;13.80;;;10.50;;
13147;SDS011;6639;50.956;4.242;2022-12-18T10:29:37;16.47;;;12.27;;
13147;SDS011;6639;50.956;4.242;2022-12-18T10:32:04;16.77;;;12.50;;
13147;SDS011;6639;50.956;4.242;2022-12-18T10:34:31;18.13;;;13.60;;
13147;SDS011;6639;50.956;4.242;2022-12-18T10:36:59;15.63;;;12.33;;
13147;SDS011;6639;50.956;4.242;2022-12-18T10:39:31;14.47;;;11.90;;
13147;SDS011;6639;50.956;4.242;2022-12-18T10:42:09;15.87;;;12.47;;
13147;SDS011;6639;50.956;4.242;2022-12-18T10:44:38;13.73;;;12.07;;
13147;SDS011;6639;50.956;4.242;2022-12-18T10:47:06;15.80;;;12.13;;
13147;SDS011;6639;50.956;4.242;2022-12-18T10:49:41;14.37;;;11.43;;
13147;SDS011;6639;50.956;4.242;2022-12-18T10:52:14;16.43;;;11.90;;
13147;SDS011;6639;50.956;4.242;2022-12-18T10:54:49;15.67;;;12.53;;
13147;SDS011;6639;50.956;4.242;2022-12-18T10:57:29;13.80;;;11.40;;
13147;SDS011;6639;50.956;4.242;2022-12-18T10:59:58;14.57;;;10.83;;
13147;SDS011;6639;50.956;4.242;2022-12-18T11:02:28;16.43;;;12.73;;
13147;SDS011;6639;50.956;4.242;2022-12-18T11:05:00;16.57;;;12.40;;
13147;SDS011;6639;50.956;4.242;2022-12-18T11:07:41;18.83;;;15.23;;
13147;SDS011;6639;50.956;4.242;2022-12-18T11:10:17;17.90;;;13.67;;
13147;SDS011;6639;50.956;4.242;2022-12-18T11:12:46;15.73;;;13.77;;
13147;SDS011;6639;50.956;4.242;2022-12-18T11:15:15;14.23;;;12.77;;
13147;SDS011;6639;50.956;4.242;2022-12-18T11:17:46;14.30;;;11.50;;
13147;SDS011;6639;50.956;4.242;2022-12-18T11:20:20;13.30;;;11.90;;
13147;SDS011;6639;50.956;4.242;2022-12-18T11:22:56;14.73;;;11.87;;
13147;SDS011;6639;50.956;4.242;2022-12-18T11:25:26;19.43;;;14.40;;
13147;SDS011;6639;50.956;4.242;2022-12-18T11:27:55;18.10;;;14.70;;
13147;SDS011;6639;50.956;4.242;2022-12-18T11:30:24;15.07;;;11.87;;
13147;SDS011;6639;50.956;4.242;2022-12-18T11:32:53;14.33;;;11.80;;
13147;SDS011;6639;50.956;4.242;2022-12-18T11:35:24;16.37;;;12.10;;
13147;SDS011;6639;50.956;4.242;2022-12-18T11:37:59;14.50;;;11.53;;
13147;SDS011;6639;50.956;4.242;2022-12-18T11:40:35;14.73;;;12.03;;
13147;SDS011;6639;50.956;4.242;2022-12-18T11:43:06;14.77;;;12.30;;
13147;SDS011;6639;50.956;4.242;2022-12-18T11:45:39;15.40;;;12.50;;
13147;SDS011;6639;50.956;4.242;2022-12-18T11:48:12;16.93;;;12.13;;
13147;SDS011;6639;50.956;4.242;2022-12-18T11:50:46;14.00;;;12.40;;
13147;SDS011;6639;50.956;4.242;2022-12-18T11:53:16;13.93;;;11.77;;
13147;SDS011;6639;50.956;4.242;2022-12-18T11:55:49;12.50;;;10.97;;
13147;SDS011;6639;50.956;4.242;2022-12-18T11:58:29;14.27;;;11.90;;
13147;SDS011;6639;50.956;4.242;2022-12-18T12:01:12;14.53;;;12.20;;
13147;SDS011;6639;50.956;4.242;2022-12-18T12:06:57;18.50;;;12.57;;
13147;SDS011;6639;50.956;4.242;2022-12-18T12:09:37;17.63;;;13.33;;
13147;SDS011;6639;50.956;4.242;2022-12-18T12:12:20;17.43;;;13.30;;
13147;SDS011;6639;50.956;4.242;2022-12-18T12:15:12;14.03;;;11.20;;
13147;SDS011;6639;50.956;4.242;2022-12-18T12:17:49;14.77;;;11.17;;
13147;SDS011;6639;50.956;4.242;2022-12-18T12:20:26;12.70;;;10.27;;
13147;SDS011;6639;50.956;4.242;2022-12-18T12:23:02;13.53;;;10.30;;
13147;SDS011;6639;50.956;4.242;2022-12-18T12:25:39;16.10;;;11.43;;
13147;SDS011;6639;50.956;4.242;2022-12-18T12:28:18;13.97;;;10.50;;
13147;SDS011;6639;50.956;4.242;2022-12-18T12:30:54;13.80;;;11.03;;
13147;SDS011;6639;50.956;4.242;2022-12-18T12:33:33;12.60;;;10.17;;
13147;SDS011;6639;50.956;4.242;2022-12-18T12:36:07;13.30;;;9.93;;
13147;SDS011;6639;50.956;4.242;2022-12-18T12:38:44;15.93;;;10.43;;
13147;SDS011;6639;50.956;4.242;2022-12-18T12:41:16;13.80;;;11.10;;
13147;SDS011;6639;50.956;4.242;2022-12-18T12:44:06;15.67;;;10.77;;
13147;SDS011;6639;50.956;4.242;2022-12-18T12:46:39;15.50;;;11.13;;
13147;SDS011;6639;50.956;4.242;2022-12-18T12:49:09;13.03;;;10.30;;
13147;SDS011;6639;50.956;4.242;2022-12-18T12:51:41;14.53;;;10.20;;
13147;SDS011;6639;50.956;4.242;2022-12-18T12:54:12;14.87;;;11.57;;
13147;SDS011;6639;50.956;4.242;2022-12-18T12:56:44;17.57;;;12.13;;
13147;SDS011;6639;50.956;4.242;2022-12-18T12:59:19;13.43;;;10.67;;
13147;SDS011;6639;50.956;4.242;2022-12-18T13:01:57;13.03;;;11.00;;
13147;SDS011;6639;50.956;4.242;2022-12-18T13:04:31;13.27;;;10.40;;
13147;SDS011;6639;50.956;4.242;2022-12-18T13:07:10;14.90;;;11.13;;
13147;SDS011;6639;50.956;4.242;2022-12-18T13:12:51;16.47;;;11.63;;
13147;SDS011;6639;50.956;4.242;2022-12-18T13:15:22;15.83;;;11.70;;
13147;SDS011;6639;50.956;4.242;2022-12-18T13:18:04;17.63;;;11.83;;
13147;SDS011;6639;50.956;4.242;2022-12-18T13:20:42;16.63;;;12.23;;
13147;SDS011;6639;50.956;4.242;2022-12-18T13:29:02;15.63;;;11.90;;
13147;SDS011;6639;50.956;4.242;2022-12-18T13:34:36;16.97;;;12.40;;
13147;SDS011;6639;50.956;4.242;2022-12-18T13:43:35;17.47;;;13.10;;
13147;SDS011;6639;50.956;4.242;2022-12-18T13:46:16;16.57;;;12.77;;
13147;SDS011;6639;50.956;4.242;2022-12-18T13:48:49;19.60;;;13.40;;
13147;SDS011;6639;50.956;4.242;2022-12-18T13:51:20;22.07;;;15.00;;
13147;SDS011;6639;50.956;4.242;2022-12-18T13:53:49;18.67;;;14.17;;
13147;SDS011;6639;50.956;4.242;2022-12-18T13:56:21;19.17;;;14.20;;
13147;SDS011;6639;50.956;4.242;2022-12-18T13:59:03;20.60;;;14.87;;
13147;SDS011;6639;50.956;4.242;2022-12-18T14:01:44;23.67;;;15.83;;
13147;SDS011;6639;50.956;4.242;2022-12-18T14:04:18;21.90;;;15.57;;
13147;SDS011;6639;50.956;4.242;2022-12-18T14:06:50;22.07;;;15.17;;
13147;SDS011;6639;50.956;4.242;2022-12-18T14:09:21;19.50;;;14.90;;
13147;SDS011;6639;50.956;4.242;2022-12-18T14:11:52;19.97;;;14.90;;
13147;SDS011;6639;50.956;4.242;2022-12-18T14:14:41;21.60;;;15.10;;
13147;SDS011;6639;50.956;4.242;2022-12-18T14:17:10;20.60;;;14.80;;
13147;SDS011;6639;50.956;4.242;2022-12-18T14:19:40;21.93;;;16.37;;
13147;SDS011;6639;50.956;4.242;2022-12-18T14:22:13;21.33;;;15.40;;
13147;SDS011;6639;50.956;4.242;2022-12-18T14:24:42;23.17;;;16.20;;
13147;SDS011;6639;50.956;4.242;2022-12-18T14:27:12;22.63;;;15.40;;
13147;SDS011;6639;50.956;4.242;2022-12-18T14:29:47;19.97;;;15.90;;
13147;SDS011;6639;50.956;4.242;2022-12-18T14:32:14;23.17;;;16.60;;
13147;SDS011;6639;50.956;4.242;2022-12-18T14:34:42;20.70;;;16.80;;
13147;SDS011;6639;50.956;4.242;2022-12-18T14:37:09;21.07;;;16.33;;
13147;SDS011;6639;50.956;4.242;2022-12-18T14:39:38;23.03;;;16.83;;
13147;SDS011;6639;50.956;4.242;2022-12-18T14:42:05;22.80;;;16.33;;
13147;SDS011;6639;50.956;4.242;2022-12-18T14:44:36;25.13;;;17.83;;
13147;SDS011;6639;50.956;4.242;2022-12-18T14:47:03;23.70;;;17.03;;
13147;SDS011;6639;50.956;4.242;2022-12-18T14:49:30;24.27;;;17.07;;
13147;SDS011;6639;50.956;4.242;2022-12-18T14:51:59;25.30;;;17.90;;
13147;SDS011;6639;50.956;4.242;2022-12-18T14:54:27;21.97;;;16.20;;
13147;SDS011;6639;50.956;4.242;2022-12-18T14:56:58;22.83;;;16.77;;
13147;SDS011;6639;50.956;4.242;2022-12-18T14:59:27;20.30;;;16.30;;
13147;SDS011;6639;50.956;4.242;2022-12-18T15:02:00;20.77;;;16.73;;
13147;SDS011;6639;50.956;4.242;2022-12-18T15:04:31;24.80;;;18.13;;
13147;SDS011;6639;50.956;4.242;2022-12-18T15:07:11;24.67;;;17.93;;
13147;SDS011;6639;50.956;4.242;2022-12-18T15:09:41;26.30;;;16.67;;
13147;SDS011;6639;50.956;4.242;2022-12-18T15:12:19;22.00;;;17.23;;
13147;SDS011;6639;50.956;4.242;2022-12-18T15:14:52;23.10;;;16.40;;
13147;SDS011;6639;50.956;4.242;2022-12-18T15:17:20;20.93;;;15.83;;